Time;durP1;ratioP1;P1;durP2;ratioP2;P2;SDS_P1;SDS_P2;PMS_P1;PMS_P2;Temp;Humidity;BMP_temperature;BMP_pressure;BME280_temperature;BME280_humidity;BME280_pressure;Samples;Min_cycle;Max_cycle;Signal;HPM_P1;HPM_P2
2022/03/05 00:00:38;;;;;;;10.15;6.20;;;1.00;99.90;;;;;;5037222;28;20053;-59
2022/03/05 00:03:04;;;;;;;6.03;4.40;;;1.00;99.90;;;;;;5021024;28;20063;-59
2022/03/05 00:05:31;;;;;;;7.03;4.80;;;0.90;99.90;;;;;;5040060;28;20472;-59
2022/03/05 00:07:56;;;;;;;10.43;5.13;;;0.80;99.90;;;;;;5022570;28;20226;-58
2022/03/05 00:10:22;;;;;;;5.85;4.82;;;0.80;99.90;;;;;;5049653;28;20048;-58
2022/03/05 00:12:51;;;;;;;6.07;4.00;;;0.90;99.90;;;;;;5036028;28;20045;-59
2022/03/05 00:15:18;;;;;;;7.13;5.70;;;0.90;99.90;;;;;;5040690;28;20105;-59
2022/03/05 00:17:44;;;;;;;8.65;5.50;;;0.90;99.90;;;;;;5041281;28;20041;-59
2022/03/05 00:20:10;;;;;;;6.90;5.55;;;1.00;99.90;;;;;;5021576;28;20071;-58
2022/03/05 00:22:36;;;;;;;7.45;5.68;;;0.90;99.90;;;;;;5035656;28;20798;-59
2022/03/05 00:25:03;;;;;;;6.82;5.32;;;1.00;99.90;;;;;;5037584;28;20041;-58
2022/03/05 00:27:29;;;;;;;8.80;6.18;;;1.00;99.90;;;;;;5050765;28;20040;-59
2022/03/05 00:29:55;;;;;;;5.07;4.55;;;0.90;99.90;;;;;;5019484;28;20393;-59
2022/03/05 00:32:20;;;;;;;9.00;5.53;;;1.00;99.90;;;;;;5038229;28;20710;-58
2022/03/05 00:34:46;;;;;;;9.00;4.00;;;1.00;99.90;;;;;;5048577;28;20045;-59
2022/03/05 00:37:11;;;;;;;6.00;4.55;;;0.90;99.90;;;;;;5037033;28;20119;-59
2022/03/05 00:39:37;;;;;;;8.43;4.60;;;0.80;99.90;;;;;;5032827;28;20439;-58
2022/03/05 00:42:04;;;;;;;7.25;5.90;;;0.90;99.90;;;;;;5042181;28;20192;-59
2022/03/05 00:44:30;;;;;;;6.00;3.78;;;0.90;99.90;;;;;;5051396;28;20049;-59
2022/03/05 00:46:56;;;;;;;7.57;5.72;;;0.80;99.90;;;;;;5047794;28;20045;-58
2022/03/05 00:49:22;;;;;;;6.30;4.22;;;0.80;99.90;;;;;;5048632;28;20044;-59
2022/03/05 00:51:48;;;;;;;9.40;5.50;;;0.80;99.90;;;;;;5049914;28;20044;-60
2022/03/05 00:54:14;;;;;;;7.75;5.15;;;0.80;99.90;;;;;;5026151;28;20049;-59
2022/03/05 00:56:40;;;;;;;9.15;4.40;;;0.80;99.90;;;;;;5043886;28;20052;-59
2022/03/05 00:59:05;;;;;;;6.25;4.55;;;0.80;99.90;;;;;;5046213;28;20044;-58
2022/03/05 01:01:31;;;;;;;7.25;5.10;;;0.80;99.90;;;;;;5042322;28;20044;-59
2022/03/05 01:03:57;;;;;;;8.63;5.28;;;0.90;99.90;;;;;;5045952;28;20887;-59
2022/03/05 01:06:22;;;;;;;7.40;4.85;;;0.90;99.90;;;;;;5051896;28;20040;-58
2022/03/05 01:08:48;;;;;;;7.35;5.07;;;0.90;99.90;;;;;;5044118;28;20029;-59
2022/03/05 01:11:16;;;;;;;8.23;5.35;;;0.80;99.90;;;;;;5045855;28;20045;-59
2022/03/05 01:13:43;;;;;;;6.03;5.00;;;0.80;99.90;;;;;;5049443;28;20036;-58
2022/03/05 01:16:08;;;;;;;8.45;5.40;;;0.80;99.90;;;;;;5050743;28;20040;-58
2022/03/05 01:18:34;;;;;;;10.13;6.82;;;0.70;99.90;;;;;;5023083;28;20174;-58
2022/03/05 01:21:00;;;;;;;7.57;5.45;;;0.60;99.90;;;;;;5050892;28;20048;-59
2022/03/05 01:23:25;;;;;;;8.15;5.55;;;0.60;99.90;;;;;;5046453;28;20040;-59
2022/03/05 01:25:51;;;;;;;5.72;4.65;;;0.60;99.90;;;;;;5050570;28;20119;-58
2022/03/05 01:28:17;;;;;;;8.40;6.20;;;0.60;99.90;;;;;;5047077;28;20040;-58
2022/03/05 01:30:42;;;;;;;8.75;5.63;;;0.60;99.90;;;;;;5022637;28;20033;-58
2022/03/05 01:33:08;;;;;;;9.93;5.57;;;0.50;99.90;;;;;;5047500;28;20142;-59
2022/03/05 01:35:33;;;;;;;10.88;6.20;;;0.40;99.90;;;;;;5044351;28;20119;-58
2022/03/05 01:37:59;;;;;;;8.88;5.60;;;0.30;99.90;;;;;;5041477;28;20060;-58
2022/03/05 01:40:25;;;;;;;11.00;6.43;;;0.30;99.90;;;;;;5046814;28;20139;-59
2022/03/05 01:42:50;;;;;;;7.60;5.78;;;0.20;99.90;;;;;;5049078;28;20528;-58
2022/03/05 01:45:16;;;;;;;9.40;5.28;;;0.10;99.90;;;;;;5049617;28;20045;-58
2022/03/05 01:47:42;;;;;;;9.82;5.95;;;0.10;99.90;;;;;;5048562;28;20044;-58
2022/03/05 01:50:09;;;;;;;8.73;5.55;;;0.20;99.90;;;;;;5045709;28;20110;-61
2022/03/05 01:52:35;;;;;;;8.75;6.10;;;0.10;99.90;;;;;;5051243;28;20049;-58
2022/03/05 01:55:01;;;;;;;9.02;5.28;;;0.10;99.90;;;;;;5039214;28;20090;-59
2022/03/05 01:57:26;;;;;;;8.63;6.03;;;0.10;99.90;;;;;;5042936;28;20455;-59
2022/03/05 01:59:53;;;;;;;9.00;6.05;;;0.10;99.90;;;;;;5041687;28;20045;-58
2022/03/05 02:02:18;;;;;;;7.05;5.28;;;0.10;99.90;;;;;;5060606;28;20048;-59
2022/03/05 02:04:44;;;;;;;7.18;5.38;;;0.10;99.90;;;;;;5044240;28;20107;-59
2022/03/05 02:07:09;;;;;;;8.85;5.75;;;0.10;99.90;;;;;;5040662;28;20048;-59
2022/03/05 02:09:35;;;;;;;7.97;5.63;;;0.10;99.90;;;;;;5057417;28;20048;-59
2022/03/05 02:12:01;;;;;;;8.90;6.22;;;0.10;99.90;;;;;;5060440;28;20408;-59
2022/03/05 02:14:27;;;;;;;9.25;6.63;;;0.10;99.90;;;;;;5060964;28;20510;-59
2022/03/05 02:16:53;;;;;;;7.65;5.55;;;0.10;99.90;;;;;;5043494;28;20079;-59
2022/03/05 02:19:19;;;;;;;8.32;5.40;;;0.10;99.90;;;;;;5060969;28;20054;-58
2022/03/05 02:21:46;;;;;;;7.38;5.45;;;0.10;99.90;;;;;;5060825;28;20052;-59
2022/03/05 02:24:12;;;;;;;6.35;5.05;;;0.10;99.90;;;;;;5060261;28;20502;-59
2022/03/05 02:26:37;;;;;;;9.18;5.88;;;0.10;99.90;;;;;;5060511;28;20044;-59
2022/03/05 02:29:03;;;;;;;9.25;5.28;;;0.60;99.90;;;;;;5060226;28;20044;-59
2022/03/05 02:31:28;;;;;;;7.10;5.53;;;0.00;99.90;;;;;;5053089;28;20066;-59
2022/03/05 02:33:55;;;;;;;7.10;5.15;;;0.00;99.90;;;;;;5060333;28;20053;-58
2022/03/05 02:36:22;;;;;;;12.57;5.93;;;-0.20;99.90;;;;;;5060430;28;20041;-58
2022/03/05 02:38:49;;;;;;;9.75;5.10;;;0.00;99.90;;;;;;5059749;28;20457;-59
2022/03/05 02:41:16;;;;;;;8.05;5.03;;;0.00;99.90;;;;;;5060785;28;20129;-59
2022/03/05 02:43:42;;;;;;;9.07;5.90;;;0.00;99.90;;;;;;5039236;28;20447;-59
2022/03/05 02:46:07;;;;;;;10.20;5.68;;;0.00;99.90;;;;;;5059484;28;20036;-59
2022/03/05 02:48:33;;;;;;;6.43;5.78;;;0.00;99.90;;;;;;5060220;28;20040;-59
2022/03/05 02:50:59;;;;;;;9.63;5.45;;;0.00;99.90;;;;;;5060397;28;20106;-59
2022/03/05 02:53:24;;;;;;;7.65;5.45;;;0.00;99.90;;;;;;5060211;28;20139;-58
2022/03/05 02:55:50;;;;;;;10.18;5.20;;;0.00;99.90;;;;;;5054006;28;20052;-59
2022/03/05 02:58:15;;;;;;;9.60;6.13;;;0.00;99.90;;;;;;5060121;28;20056;-59
2022/03/05 03:00:42;;;;;;;9.40;6.07;;;-0.10;99.90;;;;;;5059213;28;20044;-59
2022/03/05 03:03:07;;;;;;;11.32;6.47;;;0.00;99.90;;;;;;5040486;28;20057;-59
2022/03/05 03:05:33;;;;;;;10.55;6.07;;;0.00;99.90;;;;;;5060754;28;20056;-58
2022/03/05 03:07:59;;;;;;;10.40;5.47;;;-0.10;99.90;;;;;;5059669;28;20048;-58
2022/03/05 03:10:24;;;;;;;8.95;5.53;;;0.00;99.90;;;;;;5036167;28;20779;-59
2022/03/05 03:12:50;;;;;;;8.43;6.18;;;-0.10;99.90;;;;;;5060274;28;20117;-58
2022/03/05 03:15:17;;;;;;;8.60;5.97;;;-0.10;99.90;;;;;;5059407;28;20474;-58
2022/03/05 03:17:48;;;;;;;8.57;5.93;;;-0.10;99.90;;;;;;5059531;28;20052;-58
2022/03/05 03:20:25;;;;;;;10.20;6.70;;;-0.10;99.90;;;;;;5059416;28;20121;-58
2022/03/05 03:22:52;;;;;;;9.20;5.53;;;-0.20;99.90;;;;;;5059795;28;20052;-59
2022/03/05 03:25:18;;;;;;;10.43;5.97;;;-0.20;99.90;;;;;;5041942;28;20129;-59
2022/03/05 03:27:44;;;;;;;6.57;4.65;;;-0.20;99.90;;;;;;5051825;28;20796;-58
2022/03/05 03:30:11;;;;;;;10.05;6.18;;;-0.30;99.90;;;;;;5034996;28;20055;-58
2022/03/05 03:32:38;;;;;;;7.35;5.22;;;-0.30;99.90;;;;;;5058845;28;20057;-58
2022/03/05 03:35:05;;;;;;;16.23;6.07;;;-0.30;99.90;;;;;;5058697;28;20060;-59
2022/03/05 03:37:31;;;;;;;8.65;5.50;;;-0.30;99.90;;;;;;5041105;28;20036;-58
2022/03/05 03:39:58;;;;;;;10.13;5.88;;;-0.30;99.90;;;;;;5059789;28;20063;-58
2022/03/05 03:42:25;;;;;;;7.25;5.00;;;-0.20;99.90;;;;;;5041253;28;20048;-59
2022/03/05 03:44:50;;;;;;;7.00;5.65;;;-0.20;99.90;;;;;;5033880;28;20445;-58
2022/03/05 03:47:17;;;;;;;7.40;5.75;;;-0.20;99.90;;;;;;5052806;28;20063;-58
2022/03/05 03:49:43;;;;;;;8.55;5.43;;;-0.20;99.90;;;;;;5040656;28;20134;-59
2022/03/05 03:52:08;;;;;;;6.90;6.20;;;-0.20;99.90;;;;;;5059096;28;20056;-59
2022/03/05 03:54:35;;;;;;;11.10;5.65;;;-0.20;99.90;;;;;;5059347;28;20050;-59
2022/03/05 03:57:00;;;;;;;8.27;5.50;;;-0.20;99.90;;;;;;5058241;28;20119;-59
2022/03/05 03:59:26;;;;;;;12.23;6.75;;;-0.20;99.90;;;;;;5040313;28;20055;-59
2022/03/05 04:01:51;;;;;;;9.45;7.10;;;-0.20;99.90;;;;;;5058589;28;20048;-58
2022/03/05 04:04:17;;;;;;;10.35;5.82;;;-0.20;99.90;;;;;;5057740;28;20482;-59
2022/03/05 04:09:27;;;;;;;13.10;5.50;;;-0.30;99.90;;;;;;5058816;28;20051;-59
2022/03/05 04:11:52;;;;;;;8.68;6.35;;;-0.30;99.90;;;;;;5059025;28;20045;-59
2022/03/05 04:14:18;;;;;;;7.05;5.13;;;-0.30;99.90;;;;;;5058639;28;20045;-59
2022/03/05 04:16:43;;;;;;;7.20;5.43;;;-0.30;99.90;;;;;;5058107;28;20827;-58
2022/03/05 04:19:09;;;;;;;8.38;5.05;;;-0.40;99.90;;;;;;5058681;28;20063;-59
2022/03/05 04:21:35;;;;;;;9.98;5.35;;;-0.40;99.90;;;;;;5058913;28;20091;-59
2022/03/05 04:24:01;;;;;;;8.05;4.88;;;-0.40;99.90;;;;;;5058075;28;20106;-59
2022/03/05 04:26:26;;;;;;;12.10;6.40;;;-0.40;99.90;;;;;;5057804;28;20863;-59
2022/03/05 04:28:52;;;;;;;7.65;4.40;;;-0.40;99.90;;;;;;5058339;28;20059;-58
2022/03/05 04:31:17;;;;;;;6.68;5.80;;;-0.40;99.90;;;;;;5056240;28;20182;-59
2022/03/05 04:33:43;;;;;;;9.52;6.72;;;-0.40;99.90;;;;;;5058051;28;20052;-59
2022/03/05 04:36:08;;;;;;;6.43;5.15;;;-0.40;99.90;;;;;;5058126;28;20044;-59
2022/03/05 04:38:34;;;;;;;7.85;5.30;;;-0.40;99.90;;;;;;5057536;28;20079;-59
2022/03/05 04:41:00;;;;;;;7.75;6.95;;;-1.80;99.90;;;;;;5058739;28;20426;-59
2022/03/05 04:43:25;;;;;;;6.25;4.90;;;-0.50;99.90;;;;;;5058433;28;20127;-59
2022/03/05 04:45:51;;;;;;;9.57;6.00;;;-0.50;99.90;;;;;;5057517;28;20066;-58
2022/03/05 04:48:16;;;;;;;8.60;6.20;;;-0.50;99.90;;;;;;5058857;28;20048;-58
2022/03/05 04:50:45;;;;;;;9.68;5.32;;;-0.50;99.90;;;;;;5058659;28;20489;-59
2022/03/05 04:53:11;;;;;;;9.23;5.68;;;-0.50;99.90;;;;;;5057496;28;20048;-58
2022/03/05 04:55:37;;;;;;;10.73;5.95;;;-0.50;99.90;;;;;;5058409;28;20068;-58
2022/03/05 04:58:02;;;;;;;8.02;5.00;;;-0.50;99.90;;;;;;5058241;28;20040;-58
2022/03/05 05:00:28;;;;;;;7.28;6.50;;;-0.50;99.90;;;;;;5057276;28;20048;-58
2022/03/05 05:02:54;;;;;;;16.00;6.28;;;-0.50;99.90;;;;;;5057802;28;20045;-58
2022/03/05 05:05:20;;;;;;;8.00;5.43;;;-0.50;99.90;;;;;;5058182;28;20056;-57
2022/03/05 05:07:46;;;;;;;6.75;4.97;;;-0.50;99.90;;;;;;5057581;28;20048;-58
2022/03/05 05:10:11;;;;;;;8.18;4.90;;;-0.50;99.90;;;;;;5040084;28;20139;-58
2022/03/05 05:12:37;;;;;;;7.78;5.53;;;-0.50;99.90;;;;;;5058488;28;20863;-58
2022/03/05 05:15:03;;;;;;;7.57;5.03;;;-0.50;99.90;;;;;;5057657;28;20067;-58
2022/03/05 05:17:37;;;;;;;9.10;5.18;;;-0.50;99.90;;;;;;5058064;28;20048;-58
2022/03/05 05:20:08;;;;;;;7.40;5.15;;;-0.40;99.90;;;;;;5057330;28;20077;-58
2022/03/05 05:22:34;;;;;;;6.18;4.63;;;-0.50;99.90;;;;;;5058052;28;20041;-58
2022/03/05 05:25:00;;;;;;;6.43;4.35;;;-0.50;99.90;;;;;;5057748;28;20049;-58
2022/03/05 05:27:27;;;;;;;6.22;4.47;;;-0.50;99.90;;;;;;5056961;28;20499;-58
2022/03/05 05:29:52;;;;;;;9.07;5.97;;;-0.50;99.90;;;;;;5057631;28;20059;-58
2022/03/05 05:32:19;;;;;;;6.47;4.40;;;-0.50;99.90;;;;;;5057751;28;20056;-58
2022/03/05 05:34:45;;;;;;;6.57;4.22;;;-0.50;99.90;;;;;;5057750;28;20851;-58
2022/03/05 05:37:11;;;;;;;9.85;4.82;;;-0.50;99.90;;;;;;5058205;28;20055;-58
2022/03/05 05:39:37;;;;;;;6.55;5.00;;;-0.40;99.90;;;;;;5058510;28;20055;-58
2022/03/05 05:42:03;;;;;;;5.53;4.70;;;-0.50;99.90;;;;;;5058547;28;20743;-58
2022/03/05 05:44:29;;;;;;;8.35;4.85;;;-0.50;99.90;;;;;;5061534;28;20044;-58
2022/03/05 05:46:54;;;;;;;10.07;5.10;;;-0.40;99.90;;;;;;5061861;28;20048;-58
2022/03/05 05:49:20;;;;;;;7.63;5.57;;;-0.50;99.90;;;;;;5061015;28;20098;-58
2022/03/05 05:51:46;;;;;;;7.70;4.93;;;-0.50;99.90;;;;;;5061359;28;20067;-58
2022/03/05 05:54:11;;;;;;;8.40;5.70;;;-0.50;99.90;;;;;;5039698;28;20753;-58
2022/03/05 05:56:37;;;;;;;9.60;5.13;;;-0.50;99.90;;;;;;5023039;28;20057;-57
2022/03/05 05:59:04;;;;;;;9.45;4.68;;;-0.50;99.90;;;;;;5041133;28;20052;-58
2022/03/05 06:01:30;;;;;;;9.30;5.18;;;-0.50;99.90;;;;;;5041458;28;20067;-58
2022/03/05 06:03:56;;;;;;;10.57;5.50;;;-0.50;99.90;;;;;;5033045;28;20796;-58
2022/03/05 06:06:22;;;;;;;7.88;5.00;;;-0.50;99.90;;;;;;5061269;28;20047;-58
2022/03/05 06:08:48;;;;;;;5.05;4.40;;;-0.50;99.90;;;;;;5061705;28;20049;-58
2022/03/05 06:11:17;;;;;;;8.15;4.97;;;-0.40;99.90;;;;;;5060962;28;20087;-58
2022/03/05 06:13:45;;;;;;;7.03;4.78;;;-0.20;99.90;;;;;;5061286;28;20412;-58
2022/03/05 06:16:12;;;;;;;10.15;5.30;;;-0.50;99.90;;;;;;5060367;28;20044;-58
2022/03/05 06:18:37;;;;;;;7.90;5.00;;;-0.60;99.90;;;;;;5060872;28;20047;-58
2022/03/05 06:21:05;;;;;;;10.05;5.80;;;-0.70;99.90;;;;;;5061251;28;20057;-58
2022/03/05 06:23:31;;;;;;;5.70;5.15;;;-0.70;99.90;;;;;;5060585;28;20044;-58
2022/03/05 06:25:57;;;;;;;8.90;4.88;;;-0.70;99.90;;;;;;5043041;28;20052;-58
2022/03/05 06:28:22;;;;;;;8.10;5.05;;;-0.70;99.90;;;;;;5061055;28;20047;-59
2022/03/05 06:30:48;;;;;;;7.15;4.97;;;-0.70;99.90;;;;;;5058882;28;20050;-59
2022/03/05 06:33:16;;;;;;;5.47;4.63;;;-0.60;99.90;;;;;;5050996;28;20155;-59
2022/03/05 06:35:42;;;;;;;7.97;5.10;;;-0.60;99.90;;;;;;5046512;28;20041;-59
2022/03/05 06:38:08;;;;;;;9.25;5.65;;;-0.60;99.90;;;;;;5040917;28;20088;-60
2022/03/05 06:40:34;;;;;;;10.18;6.47;;;-0.60;99.90;;;;;;5048753;28;20041;-59
2022/03/05 06:42:59;;;;;;;8.02;5.13;;;-0.50;99.90;;;;;;5050662;28;20130;-57
2022/03/05 06:45:25;;;;;;;10.07;7.25;;;-0.50;99.90;;;;;;5059668;28;20075;-58
2022/03/05 06:47:50;;;;;;;8.90;5.38;;;-0.40;99.90;;;;;;5060096;28;20044;-58
2022/03/05 06:50:16;;;;;;;7.25;5.07;;;-0.40;99.90;;;;;;5042219;28;20058;-58
2022/03/05 06:52:42;;;;;;;8.30;5.22;;;-0.40;99.90;;;;;;5059492;28;20484;-58
2022/03/05 06:55:09;;;;;;;13.18;5.45;;;-0.40;99.90;;;;;;5060616;28;20051;-59
2022/03/05 06:57:34;;;;;;;9.30;6.05;;;-0.30;99.90;;;;;;5060404;28;20524;-58
2022/03/05 07:00:00;;;;;;;7.47;5.07;;;-0.30;99.90;;;;;;5059301;28;20048;-58
2022/03/05 07:02:25;;;;;;;9.63;5.43;;;-0.20;99.90;;;;;;5060122;28;20037;-60
2022/03/05 07:04:51;;;;;;;8.50;5.80;;;-0.20;99.90;;;;;;5059821;28;20056;-58
2022/03/05 07:07:17;;;;;;;8.52;5.80;;;-0.20;99.90;;;;;;5059623;28;20145;-58
2022/03/05 07:09:42;;;;;;;8.52;4.70;;;-0.10;99.90;;;;;;5059773;28;20044;-58
2022/03/05 07:12:09;;;;;;;9.73;6.00;;;-0.10;99.90;;;;;;5046553;28;20059;-58
2022/03/05 07:14:35;;;;;;;12.23;6.10;;;-0.10;99.90;;;;;;5040008;28;20085;-58
2022/03/05 07:17:01;;;;;;;9.98;6.03;;;1.10;99.90;;;;;;5040328;28;20044;-58
2022/03/05 07:19:27;;;;;;;8.45;6.15;;;0.00;99.90;;;;;;5029642;28;20064;-58
2022/03/05 07:21:52;;;;;;;7.60;5.00;;;0.10;99.90;;;;;;5038532;28;20069;-58
2022/03/05 07:24:19;;;;;;;9.20;5.53;;;0.20;99.90;;;;;;5039101;28;20794;-58
2022/03/05 07:26:44;;;;;;;13.13;6.82;;;0.20;99.90;;;;;;5038993;28;20052;-57
2022/03/05 07:29:10;;;;;;;7.45;6.05;;;0.30;99.90;;;;;;5020564;28;20045;-58
2022/03/05 07:31:36;;;;;;;11.20;6.18;;;0.30;99.90;;;;;;5037871;28;20703;-58
2022/03/05 07:34:01;;;;;;;10.02;6.70;;;0.40;99.90;;;;;;5037888;28;20049;-58
2022/03/05 07:36:27;;;;;;;10.65;7.20;;;0.50;99.90;;;;;;5053992;28;20097;-58
2022/03/05 07:38:52;;;;;;;10.35;7.38;;;0.60;99.90;;;;;;5050549;28;20059;-58
2022/03/05 07:41:18;;;;;;;10.90;7.85;;;0.70;99.90;;;;;;5047087;28;20160;-58
2022/03/05 07:43:44;;;;;;;8.55;5.95;;;0.80;99.90;;;;;;5048727;28;20040;-58
2022/03/05 07:46:11;;;;;;;11.88;6.80;;;0.90;99.90;;;;;;5039757;28;20870;-58
2022/03/05 07:48:36;;;;;;;11.27;7.75;;;1.00;99.90;;;;;;5036870;28;20550;-57
2022/03/05 07:51:03;;;;;;;14.07;7.70;;;1.10;99.90;;;;;;5038502;28;20048;-58
2022/03/05 07:53:31;;;;;;;10.07;6.18;;;1.20;99.90;;;;;;5050014;28;20154;-58
2022/03/05 07:55:57;;;;;;;11.68;7.68;;;1.20;99.90;;;;;;5057899;28;20518;-58
2022/03/05 07:58:23;;;;;;;11.90;7.05;;;1.40;99.90;;;;;;5053166;28;20152;-58
2022/03/05 08:00:49;;;;;;;14.82;8.13;;;1.50;99.90;;;;;;5039955;28;20365;-58
2022/03/05 08:03:15;;;;;;;16.77;8.02;;;1.50;99.90;;;;;;5041939;28;20582;-58
2022/03/05 08:05:41;;;;;;;12.32;6.65;;;1.60;99.90;;;;;;5040809;28;20874;-58
2022/03/05 08:08:07;;;;;;;12.90;7.28;;;1.70;99.90;;;;;;5041166;28;20053;-58
2022/03/05 08:10:33;;;;;;;12.45;6.90;;;1.80;99.90;;;;;;5040860;28;20037;-58
2022/03/05 08:12:58;;;;;;;13.45;7.28;;;1.80;99.90;;;;;;5046898;28;20040;-58
2022/03/05 08:15:24;;;;;;;11.63;6.68;;;1.90;99.90;;;;;;5042098;28;20048;-58
2022/03/05 08:18:00;;;;;;;9.23;6.13;;;2.00;99.90;;;;;;5046080;28;20062;-58
2022/03/05 08:20:29;;;;;;;14.00;7.85;;;2.00;99.90;;;;;;5041769;28;20051;-58
2022/03/05 08:22:55;;;;;;;13.73;7.28;;;2.10;99.90;;;;;;5045943;28;20128;-58
2022/03/05 08:25:21;;;;;;;10.85;7.03;;;2.20;99.90;;;;;;5023428;28;20066;-58
2022/03/05 08:27:47;;;;;;;13.18;7.22;;;2.30;99.90;;;;;;5043361;28;20044;-58
2022/03/05 08:30:13;;;;;;;11.52;6.97;;;2.40;99.90;;;;;;5040402;28;20147;-58
2022/03/05 08:32:39;;;;;;;9.18;6.85;;;2.50;99.90;;;;;;5021359;28;20136;-58
2022/03/05 08:35:06;;;;;;;14.80;8.10;;;2.60;99.90;;;;;;5043679;28;20056;-58
2022/03/05 08:37:32;;;;;;;12.85;8.68;;;2.70;99.90;;;;;;5057186;28;20580;-57
2022/03/05 08:39:58;;;;;;;12.77;8.30;;;2.80;99.90;;;;;;5058161;28;20044;-58
2022/03/05 08:42:24;;;;;;;10.63;6.97;;;2.90;99.90;;;;;;5058078;28;20208;-58
2022/03/05 08:44:50;;;;;;;17.45;10.32;;;2.90;99.90;;;;;;5057949;28;20044;-58
2022/03/05 08:47:15;;;;;;;12.10;7.65;;;3.10;99.90;;;;;;5040248;28;20044;-58
2022/03/05 08:49:41;;;;;;;12.50;7.22;;;3.30;99.90;;;;;;5040510;28;20063;-58
2022/03/05 08:52:07;;;;;;;14.57;7.20;;;3.40;99.90;;;;;;5057691;28;20071;-58
2022/03/05 08:54:32;;;;;;;12.63;8.27;;;3.60;99.90;;;;;;5057860;28;20044;-58
2022/03/05 08:56:58;;;;;;;10.88;6.70;;;3.60;99.90;;;;;;5058089;28;20898;-58
2022/03/05 08:59:24;;;;;;;12.18;7.25;;;3.70;99.90;;;;;;5039408;28;20055;-58
2022/03/05 09:01:49;;;;;;;9.18;7.75;;;3.90;99.90;;;;;;5058118;28;20820;-58
2022/03/05 09:04:15;;;;;;;10.57;6.82;;;4.00;99.90;;;;;;5057387;28;20178;-58
2022/03/05 09:06:41;;;;;;;11.23;7.57;;;4.10;99.90;;;;;;5056058;28;20044;-58
2022/03/05 09:09:08;;;;;;;11.18;6.70;;;4.20;99.90;;;;;;5052011;28;20557;-59
2022/03/05 09:11:37;;;;;;;10.02;7.47;;;4.30;99.90;;;;;;5039647;28;20033;-58
2022/03/05 09:14:03;;;;;;;11.07;7.18;;;4.50;99.90;;;;;;5036625;28;20049;-58
2022/03/05 09:16:29;;;;;;;12.77;7.22;;;4.70;99.90;;;;;;5041697;28;20055;-58
2022/03/05 09:18:54;;;;;;;12.50;7.90;;;4.90;99.90;;;;;;5047807;28;20052;-58
2022/03/05 09:21:20;;;;;;;9.43;6.60;;;5.00;99.90;;;;;;5060096;28;20131;-58
2022/03/05 09:23:47;;;;;;;10.38;7.68;;;5.40;99.90;;;;;;5061168;28;20084;-58
2022/03/05 09:26:14;;;;;;;12.40;7.55;;;5.80;99.90;;;;;;5060863;28;20051;-58
2022/03/05 09:28:40;;;;;;;13.15;8.77;;;6.60;99.90;;;;;;5061727;28;20052;-58
2022/03/05 09:31:05;;;;;;;12.25;6.63;;;7.50;99.90;;;;;;5061873;28;20044;-59
2022/03/05 09:33:31;;;;;;;10.20;7.45;;;8.30;99.90;;;;;;5061168;28;20131;-58
2022/03/05 09:35:56;;;;;;;11.57;7.93;;;8.90;99.90;;;;;;5061558;28;20045;-58
2022/03/05 09:38:22;;;;;;;12.63;7.15;;;9.30;98.90;;;;;;5061549;28;20094;-58
2022/03/05 09:40:48;;;;;;;12.98;7.80;;;9.50;98.20;;;;;;5060884;28;20089;-59
2022/03/05 09:43:15;;;;;;;11.55;7.93;;;9.80;98.10;;;;;;5061797;28;20169;-58
2022/03/05 09:45:43;;;;;;;13.70;8.23;;;10.10;96.90;;;;;;5044234;28;20389;-58
2022/03/05 09:48:11;;;;;;;11.75;7.93;;;10.10;95.40;;;;;;5044107;28;20049;-58
2022/03/05 09:50:37;;;;;;;12.75;7.45;;;10.20;95.80;;;;;;5043816;28;20114;-59
2022/03/05 09:53:03;;;;;;;14.35;8.55;;;10.50;95.40;;;;;;5061094;28;20706;-58
2022/03/05 09:55:30;;;;;;;11.60;6.93;;;10.50;94.40;;;;;;5043265;28;20095;-58
2022/03/05 09:57:55;;;;;;;10.23;7.15;;;10.50;94.10;;;;;;5061214;28;20491;-58
2022/03/05 10:00:21;;;;;;;9.88;6.93;;;10.40;93.10;;;;;;5061220;28;20040;-59
2022/03/05 10:02:48;;;;;;;11.15;7.80;;;10.20;93.90;;;;;;5060977;28;20056;-58
2022/03/05 10:05:26;;;;;;;13.10;7.80;;;10.50;93.60;;;;;;5061808;28;20513;-59
2022/03/05 10:08:07;;;;;;;11.15;8.48;;;10.50;93.40;;;;;;5060908;28;20059;-58
2022/03/05 10:10:43;;;;;;;12.43;8.50;;;10.90;93.30;;;;;;5060470;28;20049;-59
2022/03/05 10:13:26;;;;;;;16.27;9.68;;;11.10;92.80;;;;;;5060649;28;20036;-59
2022/03/05 10:15:59;;;;;;;14.85;9.07;;;10.90;92.60;;;;;;5059969;28;20058;-58
2022/03/05 10:18:30;;;;;;;14.00;9.23;;;10.50;92.20;;;;;;5042697;28;20052;-59
2022/03/05 10:20:58;;;;;;;13.95;9.63;;;10.90;93.30;;;;;;5060626;28;20044;-58
2022/03/05 10:23:24;;;;;;;12.98;7.30;;;11.30;93.40;;;;;;5060321;28;20049;-58
2022/03/05 10:25:55;;;;;;;11.90;8.65;;;11.50;92.70;;;;;;5060700;28;20131;-59
2022/03/05 10:28:28;;;;;;;15.93;9.15;;;11.60;92.20;;;;;;5059843;28;20048;-58
2022/03/05 10:31:02;;;;;;;14.05;9.57;;;11.50;91.20;;;;;;5041985;28;20059;-63
2022/03/05 10:33:37;;;;;;;14.48;9.50;;;11.80;92.00;;;;;;5040201;28;20071;-59
2022/03/05 10:36:20;;;;;;;12.13;7.70;;;11.90;90.30;;;;;;5053099;28;20041;-58
2022/03/05 10:38:49;;;;;;;10.80;7.73;;;12.00;90.30;;;;;;5035732;28;20177;-58
2022/03/05 10:41:17;;;;;;;11.38;8.05;;;12.30;89.20;;;;;;5037023;28;20299;-58
2022/03/05 10:44:04;;;;;;;14.43;8.95;;;12.60;88.40;;;;;;5035128;28;20762;-59
2022/03/05 10:46:57;;;;;;;13.40;9.82;;;12.90;85.90;;;;;;5056749;28;20074;-58
2022/03/05 10:49:26;;;;;;;13.90;9.95;;;12.50;84.00;;;;;;5051397;28;20135;-58
2022/03/05 10:52:03;;;;;;;13.27;8.57;;;12.10;85.40;;;;;;5038549;28;20782;-58
2022/03/05 10:54:29;;;;;;;14.25;8.98;;;11.70;86.20;;;;;;5056387;28;20098;-58
2022/03/05 10:57:16;;;;;;;16.90;10.88;;;10.80;87.70;;;;;;5056441;28;20048;-58
2022/03/05 10:59:46;;;;;;;16.40;8.70;;;9.20;90.90;;;;;;5056560;28;20056;-58
2022/03/05 11:02:15;;;;;;;13.52;10.52;;;8.10;94.60;;;;;;5056911;28;20527;-58
2022/03/05 11:04:42;;;;;;;18.85;9.73;;;7.60;96.00;;;;;;5056532;28;20048;-58
2022/03/05 11:07:09;;;;;;;12.93;7.95;;;7.20;96.60;;;;;;5057549;28;20395;-59
2022/03/05 11:09:37;;;;;;;15.18;9.35;;;7.10;96.80;;;;;;5039873;28;20048;-58
2022/03/05 11:12:04;;;;;;;13.60;9.00;;;6.90;97.40;;;;;;5038848;28;20131;-58
2022/03/05 11:14:29;;;;;;;12.52;8.73;;;6.80;97.70;;;;;;5056816;28;20071;-59
2022/03/05 11:16:56;;;;;;;13.55;10.23;;;6.80;97.90;;;;;;5056581;28;20567;-58
2022/03/05 11:19:23;;;;;;;12.75;9.23;;;6.70;98.20;;;;;;5057653;28;20055;-58
2022/03/05 11:21:48;;;;;;;12.98;9.00;;;6.70;98.10;;;;;;5059406;28;20049;-58
2022/03/05 11:24:16;;;;;;;11.07;8.18;;;6.60;98.30;;;;;;5059026;28;20055;-58
2022/03/05 11:26:42;;;;;;;11.45;7.93;;;6.60;98.20;;;;;;5058671;28;20117;-59
2022/03/05 11:29:08;;;;;;;18.98;11.27;;;6.50;98.80;;;;;;5058920;28;20056;-59
2022/03/05 11:31:35;;;;;;;14.20;8.55;;;6.50;98.80;;;;;;5058597;28;20152;-58
2022/03/05 11:34:19;;;;;;;15.77;9.82;;;6.50;99.10;;;;;;5058883;28;20056;-58
2022/03/05 11:36:46;;;;;;;16.55;8.88;;;6.50;99.30;;;;;;5059018;28;20071;-58
2022/03/05 11:39:19;;;;;;;15.77;8.50;;;6.60;98.90;;;;;;5058859;28;20049;-58
2022/03/05 11:41:49;;;;;;;13.35;8.25;;;6.60;98.60;;;;;;5040552;28;20059;-57
2022/03/05 11:44:17;;;;;;;17.13;9.50;;;6.50;99.10;;;;;;5058989;28;20064;-58
2022/03/05 11:46:43;;;;;;;12.10;7.57;;;6.60;98.70;;;;;;5040502;28;20048;-59
2022/03/05 11:49:13;;;;;;;16.45;10.23;;;6.70;98.50;;;;;;5041429;28;20361;-59
2022/03/05 11:51:52;;;;;;;18.40;9.60;;;6.70;98.50;;;;;;5039670;28;20044;-59
2022/03/05 11:54:18;;;;;;;16.83;10.38;;;6.80;98.50;;;;;;5057500;28;20060;-59
2022/03/05 11:57:03;;;;;;;15.90;10.45;;;6.70;98.70;;;;;;5058490;28;20036;-59
2022/03/05 11:59:34;;;;;;;17.85;10.38;;;6.70;99.10;;;;;;5040533;28;20052;-59
2022/03/05 12:01:59;;;;;;;22.30;10.25;;;6.80;99.00;;;;;;5056768;28;20053;-59
2022/03/05 12:04:28;;;;;;;16.92;11.43;;;6.80;99.20;;;;;;5057549;28;20090;-59
2022/03/05 12:07:12;;;;;;;21.02;11.55;;;6.80;98.50;;;;;;5039432;28;20087;-59
2022/03/05 12:09:44;;;;;;;19.02;10.88;;;6.90;98.90;;;;;;5057579;28;20706;-58
2022/03/05 12:12:15;;;;;;;13.45;9.27;;;7.00;98.10;;;;;;5057951;28;20048;-59
2022/03/05 12:14:59;;;;;;;14.00;8.38;;;7.10;98.00;;;;;;5039329;28;20048;-59
2022/03/05 12:17:25;;;;;;;18.38;9.98;;;7.20;98.00;;;;;;5058099;28;20064;-59
2022/03/05 12:19:51;;;;;;;13.63;10.02;;;7.00;98.10;;;;;;5057219;28;20088;-59
2022/03/05 12:22:17;;;;;;;13.50;8.27;;;6.90;98.30;;;;;;5056578;28;20097;-59
2022/03/05 12:24:43;;;;;;;18.63;10.10;;;7.00;98.60;;;;;;5057633;28;20048;-59
2022/03/05 12:27:16;;;;;;;18.77;10.90;;;7.00;98.40;;;;;;5056751;28;20048;-59
2022/03/05 12:29:50;;;;;;;19.08;10.70;;;7.10;98.00;;;;;;5056346;28;20096;-59
2022/03/05 12:32:17;;;;;;;19.92;12.63;;;7.20;97.40;;;;;;5057108;28;20055;-59
2022/03/05 12:34:43;;;;;;;13.43;8.77;;;7.20;97.40;;;;;;5057094;28;20053;-59
2022/03/05 12:37:09;;;;;;;16.92;9.23;;;7.30;97.50;;;;;;5056588;28;20051;-59
2022/03/05 12:39:41;;;;;;;18.65;11.38;;;7.30;97.60;;;;;;5056849;28;20542;-58
2022/03/05 12:42:07;;;;;;;16.13;11.30;;;7.40;97.90;;;;;;5057582;28;20072;-59
2022/03/05 12:44:37;;;;;;;13.73;7.65;;;7.50;97.50;;;;;;5057068;28;20183;-59
2022/03/05 12:47:03;;;;;;;14.20;8.57;;;7.60;97.00;;;;;;5057459;28;20883;-59
2022/03/05 12:49:28;;;;;;;16.05;10.15;;;7.60;97.10;;;;;;5039489;28;20083;-59